Time;durP1;ratioP1;P1;durP2;ratioP2;P2;SDS_P1;SDS_P2;PMS_P1;PMS_P2;Temp;Humidity;BMP_temperature;BMP_pressure;BME280_temperature;BME280_humidity;BME280_pressure;Samples;Min_cycle;Max_cycle;Signal;HPM_P1;HPM_P2
2024/01/07 00:02:12;;;;;;;21.60;9.80;;;;;;;-0.80;81.61;98414.13;105736;1251;110585;-67
2024/01/07 00:04:40;;;;;;;20.80;9.50;;;;;;;-0.82;81.28;98414.38;105474;1253;97534;-69
2024/01/07 00:07:08;;;;;;;23.50;10.30;;;;;;;-0.86;81.23;98414.20;105431;1267;107213;-69
2024/01/07 00:09:36;;;;;;;23.30;10.50;;;;;;;-0.89;81.38;98418.30;105326;1264;97810;-68
2024/01/07 00:12:05;;;;;;;22.50;10.20;;;;;;;-0.91;81.38;98419.74;105373;1253;96677;-69
2024/01/07 00:14:33;;;;;;;23.20;10.20;;;;;;;-0.95;81.48;98426.33;105427;1251;110454;-69
2024/01/07 00:17:00;;;;;;;21.60;9.30;;;;;;;-0.99;81.46;98426.13;105214;1255;97916;-69
2024/01/07 00:19:31;;;;;;;21.20;9.50;;;;;;;-1.02;81.33;98427.81;104873;1264;107192;-69
2024/01/07 00:21:59;;;;;;;22.10;10.40;;;;;;;-1.03;81.56;98431.31;106187;1254;96507;-69
2024/01/07 00:24:28;;;;;;;20.90;9.30;;;;;;;-1.05;81.25;98430.52;105877;1251;96979;-69
2024/01/07 00:26:56;;;;;;;22.70;10.00;;;;;;;-1.08;81.65;98436.18;105954;1254;109836;-69
2024/01/07 00:29:24;;;;;;;21.80;9.20;;;;;;;-1.10;81.33;98435.04;105945;1253;96535;-69
2024/01/07 00:31:52;;;;;;;21.10;9.10;;;;;;;-1.11;81.34;98439.27;105378;1254;107601;-70
2024/01/07 00:34:20;;;;;;;18.90;8.40;;;;;;;-1.14;81.49;98439.52;105318;1253;96610;-70
2024/01/07 00:36:48;;;;;;;23.10;10.60;;;;;;;-1.15;81.54;98438.19;105392;1253;97064;-67
2024/01/07 00:39:16;;;;;;;21.80;9.60;;;;;;;-1.18;81.28;98440.52;105366;1253;110484;-69
2024/01/07 00:41:44;;;;;;;21.10;10.00;;;;;;;-1.20;81.38;98440.25;105788;1265;96603;-69
2024/01/07 00:44:12;;;;;;;21.40;9.20;;;;;;;-1.22;81.43;98443.45;105129;1254;107233;-69
2024/01/07 00:46:40;;;;;;;22.50;10.00;;;;;;;-1.22;81.38;98444.34;105416;1255;97917;-69
2024/01/07 00:49:07;;;;;;;22.40;10.00;;;;;;;-1.23;81.51;98448.20;105918;1254;96602;-69
2024/01/07 00:51:35;;;;;;;19.10;8.90;;;;;;;-1.23;81.53;98453.23;105843;1254;109862;-68
2024/01/07 00:54:03;;;;;;;20.90;8.80;;;;;;;-1.24;81.44;98449.65;105383;1254;97534;-71
2024/01/07 00:56:31;;;;;;;20.00;9.20;;;;;;;-1.26;81.51;98449.36;105744;1253;106154;-70
2024/01/07 00:58:59;;;;;;;20.90;9.00;;;;;;;-1.29;81.36;98451.19;105814;1253;96625;-69
2024/01/07 01:01:26;;;;;;;20.30;8.80;;;;;;;-1.32;81.55;98461.39;105604;1254;96699;-69
2024/01/07 01:03:54;;;;;;;20.00;8.40;;;;;;;-1.35;81.23;98458.16;105164;1251;110565;-69
2024/01/07 01:06:22;;;;;;;19.10;8.00;;;;;;;-1.38;81.29;98458.45;105755;1254;97533;-69
2024/01/07 01:08:50;;;;;;;19.20;8.30;;;;;;;-1.41;81.40;98457.33;105417;1253;108034;-69
2024/01/07 01:11:18;;;;;;;20.60;9.20;;;;;;;-1.43;81.43;98453.95;105220;1264;96724;-69
2024/01/07 01:13:46;;;;;;;21.60;8.90;;;;;;;-1.46;81.54;98455.73;105108;1254;96869;-69
2024/01/07 01:16:14;;;;;;;22.00;9.60;;;;;;;-1.49;81.59;98457.59;105262;1253;110223;-69
2024/01/07 01:18:42;;;;;;;19.60;8.30;;;;;;;-1.52;81.47;98458.56;105354;1254;96974;-68
2024/01/07 01:21:10;;;;;;;18.70;8.40;;;;;;;-1.53;81.53;98457.54;105324;1261;110304;-69
2024/01/07 01:23:38;;;;;;;20.40;9.50;;;;;;;-1.52;81.25;98459.10;105321;1250;96941;-70
2024/01/07 01:26:06;;;;;;;21.30;8.50;;;;;;;-1.54;81.40;98454.29;105555;1256;96484;-68
2024/01/07 01:28:34;;;;;;;21.20;9.50;;;;;;;-1.57;81.43;98459.42;105274;1251;108924;-69
2024/01/07 01:31:02;;;;;;;19.60;8.10;;;;;;;-1.64;81.48;98459.31;105805;1256;96603;-69
2024/01/07 01:33:30;;;;;;;20.20;8.90;;;;;;;-1.68;81.42;98458.58;106061;1254;107562;-69
2024/01/07 01:35:58;;;;;;;21.00;9.10;;;;;;;-1.70;81.53;98457.58;105061;1254;96651;-68
2024/01/07 01:38:25;;;;;;;20.30;8.50;;;;;;;-1.73;81.42;98455.95;105268;1253;97415;-69
2024/01/07 01:40:54;;;;;;;21.50;9.10;;;;;;;-1.75;81.41;98454.62;105226;1251;109453;-68
2024/01/07 01:43:26;;;;;;;19.80;8.20;;;;;;;-1.77;81.22;98454.50;105024;1255;96647;-69
2024/01/07 01:45:56;;;;;;;18.90;7.50;;;;;;;-1.80;81.17;98450.94;105883;1253;107370;-69
2024/01/07 01:48:26;;;;;;;18.30;8.60;;;;;;;-1.81;81.34;98457.56;105195;1254;97922;-69
2024/01/07 01:50:57;;;;;;;19.00;8.20;;;;;;;-1.84;81.55;98456.81;105774;1254;96536;-69
2024/01/07 01:53:26;;;;;;;18.60;8.10;;;;;;;-1.88;81.56;98457.46;105121;1254;110215;-68
2024/01/07 01:56:00;;;;;;;18.70;7.50;;;;;;;-1.90;81.44;98450.73;105780;1254;96595;-68
2024/01/07 01:58:29;;;;;;;20.30;8.40;;;;;;;-1.92;81.44;98451.17;106962;1253;107923;-69
2024/01/07 02:00:59;;;;;;;20.30;7.70;;;;;;;-1.92;81.60;98453.77;105776;1254;96539;-69
2024/01/07 02:03:26;;;;;;;18.40;7.90;;;;;;;-1.95;81.49;98458.71;105426;1254;97530;-68
2024/01/07 02:05:57;;;;;;;19.60;7.70;;;;;;;-1.96;81.35;98459.12;105147;1254;112557;-68
2024/01/07 02:08:26;;;;;;;15.50;6.50;;;;;;;-1.98;81.34;98461.94;105354;1253;96529;-69
2024/01/07 02:10:54;;;;;;;20.20;8.20;;;;;;;-2.01;81.37;98459.96;105236;1254;107869;-70
2024/01/07 02:13:22;;;;;;;20.30;8.80;;;;;;;-2.04;81.33;98457.80;105490;1253;97530;-69
2024/01/07 02:15:49;;;;;;;19.30;7.50;;;;;;;-2.08;81.34;98455.31;105869;1254;96587;-68
2024/01/07 02:18:17;;;;;;;19.30;8.10;;;;;;;-2.12;81.34;98451.78;105202;1256;109940;-67
2024/01/07 02:20:45;;;;;;;18.60;7.60;;;;;;;-2.14;81.31;98449.26;105398;1253;97812;-68
2024/01/07 02:23:13;;;;;;;18.60;7.60;;;;;;;-2.18;81.51;98448.33;105285;1255;107592;-68
2024/01/07 02:25:41;;;;;;;19.60;7.90;;;;;;;-2.19;81.57;98451.30;105264;1254;96707;-68
2024/01/07 02:28:09;;;;;;;18.80;7.90;;;;;;;-2.20;81.52;98453.58;105154;1256;96681;-69
2024/01/07 02:30:37;;;;;;;17.80;7.60;;;;;;;-2.21;81.59;98451.35;105687;1256;109881;-68
2024/01/07 02:33:05;;;;;;;18.40;7.50;;;;;;;-2.20;81.58;98445.77;105406;1252;96596;-68
2024/01/07 02:35:33;;;;;;;18.80;8.50;;;;;;;-2.20;81.39;98449.40;105353;1254;107521;-68
2024/01/07 02:38:01;;;;;;;19.10;7.20;;;;;;;-2.21;81.43;98446.15;105053;1265;96618;-68
2024/01/07 02:40:29;;;;;;;19.00;7.50;;;;;;;-2.20;81.55;98448.73;105216;1264;96743;-70
2024/01/07 02:42:58;;;;;;;20.10;8.80;;;;;;;-2.20;81.47;98453.77;105273;1251;110370;-68
2024/01/07 02:45:26;;;;;;;17.80;7.20;;;;;;;-2.22;81.52;98462.66;105211;1254;97885;-68
2024/01/07 02:47:54;;;;;;;18.40;8.40;;;;;;;-2.25;81.47;98465.73;105081;1256;108229;-68
2024/01/07 02:50:22;;;;;;;20.30;8.30;;;;;;;-2.25;81.46;98462.23;105515;1251;96625;-69
2024/01/07 02:52:50;;;;;;;19.50;7.70;;;;;;;-2.24;81.50;98464.48;105352;1253;97836;-69
2024/01/07 02:55:18;;;;;;;18.10;7.70;;;;;;;-2.27;81.38;98461.62;105304;1252;109974;-69
2024/01/07 02:57:46;;;;;;;18.70;8.30;;;;;;;-2.30;81.44;98459.45;105556;1257;96577;-69
2024/01/07 03:00:14;;;;;;;16.90;7.50;;;;;;;-2.31;81.54;98456.36;105200;1254;110708;-69
2024/01/07 03:02:42;;;;;;;18.30;7.60;;;;;;;-2.31;81.44;98455.47;105564;1253;96593;-70
2024/01/07 03:05:11;;;;;;;18.50;7.20;;;;;;;-2.32;81.32;98459.67;105223;1253;96512;-68
2024/01/07 03:07:39;;;;;;;22.70;9.30;;;;;;;-2.34;81.40;98454.70;105100;1256;109951;-68
2024/01/07 03:10:08;;;;;;;18.00;7.20;;;;;;;-2.36;81.39;98454.61;105447;1254;97409;-69
2024/01/07 03:12:36;;;;;;;16.80;6.90;;;;;;;-2.37;81.36;98459.15;105312;1254;107144;-70
2024/01/07 03:15:05;;;;;;;19.60;7.80;;;;;;;-2.38;81.35;98462.11;105123;1257;97546;-68
2024/01/07 03:17:33;;;;;;;18.70;8.30;;;;;;;-2.40;81.39;98465.80;105853;1253;96680;-68
2024/01/07 03:20:01;;;;;;;17.70;6.70;;;;;;;-2.41;81.43;98461.50;104883;1255;109531;-70
2024/01/07 03:22:29;;;;;;;18.20;7.20;;;;;;;-2.42;81.43;98463.61;105398;1250;96509;-68
2024/01/07 03:24:57;;;;;;;18.90;7.70;;;;;;;-2.42;81.32;98461.20;105360;1263;108193;-69
2024/01/07 03:27:25;;;;;;;18.90;6.30;;;;;;;-2.44;81.35;98461.77;105348;1254;97872;-68
2024/01/07 03:29:53;;;;;;;17.60;6.60;;;;;;;-2.47;81.44;98461.84;105165;1252;96676;-70
2024/01/07 03:32:21;;;;;;;18.00;6.90;;;;;;;-2.48;81.40;98463.61;105408;1254;110668;-70
2024/01/07 03:34:49;;;;;;;18.80;7.20;;;;;;;-2.48;81.48;98468.65;105328;1254;96610;-69
2024/01/07 03:37:17;;;;;;;19.80;7.10;;;;;;;-2.48;81.47;98469.35;105332;1254;108615;-69
2024/01/07 03:39:47;;;;;;;16.20;7.40;;;;;;;-2.49;81.36;98471.64;105822;1254;96599;-69
2024/01/07 03:42:15;;;;;;;18.90;7.00;;;;;;;-2.51;81.22;98476.74;105842;1254;96599;-68
2024/01/07 03:44:42;;;;;;;16.00;6.40;;;;;;;-2.54;81.21;98478.73;105573;1253;109941;-68
2024/01/07 03:47:10;;;;;;;15.60;6.30;;;;;;;-2.58;81.32;98483.16;105556;1254;97543;-69
2024/01/07 03:49:38;;;;;;;16.50;6.60;;;;;;;-2.60;81.23;98486.36;105472;1270;108206;-69
2024/01/07 03:52:07;;;;;;;14.80;6.50;;;;;;;-2.61;81.42;98490.56;105590;1254;96612;-69
2024/01/07 03:54:35;;;;;;;15.10;6.10;;;;;;;-2.62;81.24;98489.54;105639;1251;96635;-68
2024/01/07 03:57:03;;;;;;;14.30;5.70;;;;;;;-2.63;81.34;98490.78;105475;1253;110159;-68
2024/01/07 03:59:31;;;;;;;17.70;7.10;;;;;;;-2.64;81.22;98487.67;105549;1251;96607;-69
2024/01/07 04:01:59;;;;;;;15.50;6.00;;;;;;;-2.70;81.28;98490.13;105732;1248;109344;-69
2024/01/07 04:04:27;;;;;;;12.00;5.20;;;;;;;-2.76;81.20;98488.54;105497;1253;96618;-71
2024/01/07 04:06:56;;;;;;;12.00;5.70;;;;;;;-2.77;81.13;98488.73;105409;1254;96701;-68
2024/01/07 04:09:23;;;;;;;15.80;6.90;;;;;;;-2.79;81.31;98489.65;105435;1254;110721;-69
2024/01/07 04:11:52;;;;;;;12.80;5.10;;;;;;;-2.80;81.25;98490.58;105821;1254;97827;-68
2024/01/07 04:14:19;;;;;;;13.70;6.10;;;;;;;-2.84;81.06;98489.78;105319;1254;107496;-68
2024/01/07 04:16:47;;;;;;;12.60;5.40;;;;;;;-2.87;81.12;98491.95;105151;1251;97807;-69
2024/01/07 04:19:15;;;;;;;15.40;6.20;;;;;;;-2.88;81.30;98493.04;105197;1254;96573;-68
2024/01/07 04:21:46;;;;;;;15.30;5.60;;;;;;;-2.91;81.16;98494.34;105418;1253;112954;-69
2024/01/07 04:24:15;;;;;;;13.20;5.70;;;;;;;-2.95;81.20;98499.12;105211;1255;96626;-69
2024/01/07 04:26:43;;;;;;;15.50;6.10;;;;;;;-3.00;81.06;98504.10;105553;1264;107926;-69
2024/01/07 04:29:11;;;;;;;14.30;5.70;;;;;;;-3.02;81.27;98504.32;105363;1254;96667;-69
2024/01/07 04:31:39;;;;;;;15.10;5.30;;;;;;;-3.02;81.18;98503.28;105210;1254;97187;-68
2024/01/07 04:34:07;;;;;;;14.70;5.50;;;;;;;-3.04;81.15;98500.56;105386;1254;109635;-69
2024/01/07 04:36:35;;;;;;;14.50;5.70;;;;;;;-3.06;81.10;98499.94;105744;1254;96565;-70
2024/01/07 04:39:03;;;;;;;13.70;4.90;;;;;;;-3.06;81.17;98511.04;105332;1264;106293;-68
2024/01/07 04:41:31;;;;;;;16.00;5.40;;;;;;;-3.10;81.20;98514.08;105526;1252;96624;-68
2024/01/07 04:43:59;;;;;;;15.60;5.70;;;;;;;-3.11;81.25;98522.11;105543;1249;96969;-69
2024/01/07 04:46:26;;;;;;;14.50;5.40;;;;;;;-3.15;81.08;98520.98;105694;1252;110410;-69
2024/01/07 04:48:55;;;;;;;11.90;4.90;;;;;;;-3.15;81.12;98518.73;105355;1253;96583;-69
2024/01/07 04:51:23;;;;;;;14.10;5.00;;;;;;;-3.17;81.17;98518.08;105405;1263;107572;-69
2024/01/07 04:53:51;;;;;;;13.40;5.20;;;;;;;-3.19;80.97;98517.95;105123;1254;96650;-69
2024/01/07 04:56:19;;;;;;;12.40;5.10;;;;;;;-3.21;81.16;98518.17;105365;1253;96848;-70
2024/01/07 04:58:47;;;;;;;13.90;5.40;;;;;;;-3.23;80.97;98521.70;105460;1250;109940;-69
2024/01/07 05:01:15;;;;;;;13.60;5.20;;;;;;;-3.24;81.27;98522.76;105260;1254;96686;-68
2024/01/07 05:03:43;;;;;;;11.60;4.80;;;;;;;-3.26;81.17;98523.67;105374;1262;108344;-67
2024/01/07 05:06:11;;;;;;;11.80;4.60;;;;;;;-3.26;81.00;98520.90;105042;1256;96603;-69
2024/01/07 05:08:40;;;;;;;12.90;4.90;;;;;;;-3.25;81.02;98521.76;105802;1253;96596;-68
2024/01/07 05:11:09;;;;;;;16.90;5.80;;;;;;;-3.25;81.09;98522.97;105198;1255;109196;-67
2024/01/07 05:13:36;;;;;;;15.50;5.40;;;;;;;-3.26;81.09;98525.42;104941;1255;97793;-68
2024/01/07 05:16:05;;;;;;;12.40;4.70;;;;;;;-3.31;81.05;98524.66;105222;1263;107376;-68
2024/01/07 05:18:33;;;;;;;11.00;4.40;;;;;;;-3.33;81.14;98527.48;105274;1256;96599;-69
2024/01/07 05:21:01;;;;;;;11.30;4.60;;;;;;;-3.34;81.06;98528.36;105209;1254;96618;-68
2024/01/07 05:23:29;;;;;;;11.30;4.60;;;;;;;-3.34;81.20;98527.17;105814;1253;109823;-67
2024/01/07 05:26:00;;;;;;;13.70;5.10;;;;;;;-3.33;81.15;98529.92;106728;1253;96631;-69
2024/01/07 05:28:28;;;;;;;10.80;3.90;;;;;;;-3.34;81.21;98529.44;105360;1253;107169;-68
2024/01/07 05:30:56;;;;;;;12.10;4.40;;;;;;;-3.34;81.11;98530.48;105435;1254;97009;-69
2024/01/07 05:33:24;;;;;;;11.30;4.20;;;;;;;-3.34;81.06;98531.69;105087;1255;96628;-69
2024/01/07 05:35:52;;;;;;;11.50;4.00;;;;;;;-3.35;81.12;98536.23;105396;1252;110401;-68
2024/01/07 05:38:20;;;;;;;13.80;5.10;;;;;;;-3.35;80.99;98534.14;105346;1253;96667;-68
2024/01/07 05:40:48;;;;;;;12.00;4.70;;;;;;;-3.35;81.13;98532.73;105440;1255;108223;-68
2024/01/07 05:43:16;;;;;;;14.00;5.10;;;;;;;-3.35;81.22;98534.31;104985;1257;96891;-68
2024/01/07 05:45:44;;;;;;;11.30;4.40;;;;;;;-3.37;80.95;98538.52;105375;1254;96503;-67
2024/01/07 05:48:12;;;;;;;14.00;6.30;;;;;;;-3.38;81.07;98534.03;105542;1253;109831;-69
2024/01/07 05:50:40;;;;;;;9.70;3.90;;;;;;;-3.40;80.92;98539.11;105190;1253;98535;-69
2024/01/07 05:53:08;;;;;;;10.60;4.30;;;;;;;-3.41;81.05;98536.55;105344;1254;108167;-68
2024/01/07 05:55:36;;;;;;;9.60;4.10;;;;;;;-3.43;80.96;98540.92;105398;1254;96712;-69
2024/01/07 05:58:03;;;;;;;10.90;5.00;;;;;;;-3.46;81.00;98543.77;105297;1253;96641;-67
2024/01/07 06:00:31;;;;;;;11.20;4.50;;;;;;;-3.47;80.97;98544.66;105380;1253;110165;-68
2024/01/07 06:03:00;;;;;;;9.80;4.10;;;;;;;-3.50;80.95;98547.33;105444;1254;97512;-68
2024/01/07 06:05:29;;;;;;;10.50;4.10;;;;;;;-3.52;80.77;98550.67;105105;1257;107652;-68
2024/01/07 06:07:57;;;;;;;8.90;4.00;;;;;;;-3.53;80.94;98550.16;106215;1256;96638;-68
2024/01/07 06:10:26;;;;;;;11.10;4.60;;;;;;;-3.53;80.90;98554.52;105277;1253;96638;-67
2024/01/07 06:12:54;;;;;;;11.20;4.30;;;;;;;-3.54;81.09;98555.56;105397;1253;108361;-68
2024/01/07 06:15:23;;;;;;;12.80;4.70;;;;;;;-3.53;81.16;98562.48;105476;1253;96635;-70
2024/01/07 06:17:51;;;;;;;9.60;4.10;;;;;;;-3.53;80.85;98563.52;105386;1257;108398;-70
2024/01/07 06:20:19;;;;;;;10.80;3.90;;;;;;;-3.55;80.97;98565.64;105348;1256;97888;-68
2024/01/07 06:22:47;;;;;;;13.40;4.60;;;;;;;-3.56;80.94;98566.02;105377;1253;97042;-69
2024/01/07 06:25:16;;;;;;;11.50;4.50;;;;;;;-3.56;80.86;98567.92;105312;1253;110018;-69
2024/01/07 06:27:44;;;;;;;12.00;4.50;;;;;;;-3.58;80.96;98572.80;105085;1262;96631;-69
2024/01/07 06:30:12;;;;;;;12.30;4.70;;;;;;;-3.57;81.05;98571.23;105269;1254;109292;-71
2024/01/07 06:32:40;;;;;;;11.50;4.40;;;;;;;-3.59;80.90;98574.23;105102;1265;96689;-68
2024/01/07 06:35:08;;;;;;;12.50;4.00;;;;;;;-3.63;80.91;98574.48;105331;1254;96592;-68
2024/01/07 06:37:36;;;;;;;9.30;4.00;;;;;;;-3.64;81.04;98569.84;105240;1254;110100;-69
2024/01/07 06:40:04;;;;;;;11.70;4.30;;;;;;;-3.64;80.92;98569.14;105295;1252;96599;-68
2024/01/07 06:42:32;;;;;;;10.60;4.30;;;;;;;-3.65;80.81;98571.06;105242;1265;107528;-69
2024/01/07 06:45:02;;;;;;;11.10;4.60;;;;;;;-3.66;81.01;98574.55;105170;1252;97415;-68
2024/01/07 06:47:29;;;;;;;12.00;4.30;;;;;;;-3.68;80.65;98574.27;105274;1253;96638;-68
2024/01/07 06:49:57;;;;;;;9.10;4.10;;;;;;;-3.70;80.73;98578.83;104972;1254;110528;-68
2024/01/07 06:52:25;;;;;;;12.70;4.40;;;;;;;-3.70;80.94;98579.67;105411;1253;96570;-69
2024/01/07 06:54:53;;;;;;;10.80;4.00;;;;;;;-3.71;80.64;98586.30;105413;1254;107993;-68
2024/01/07 06:57:21;;;;;;;11.10;4.00;;;;;;;-3.75;80.68;98588.45;105426;1262;96601;-68
2024/01/07 06:59:49;;;;;;;10.80;4.40;;;;;;;-3.76;80.85;98591.59;105271;1253;96570;-68
2024/01/07 07:02:17;;;;;;;13.30;5.40;;;;;;;-3.74;80.80;98592.42;105119;1256;110429;-69
2024/01/07 07:04:45;;;;;;;14.00;4.90;;;;;;;-3.69;80.75;98594.55;105768;1254;96686;-69
2024/01/07 07:07:13;;;;;;;15.10;5.30;;;;;;;-3.64;80.96;98594.27;105714;1254;107051;-70
2024/01/07 07:09:41;;;;;;;16.60;5.50;;;;;;;-3.60;80.99;98593.48;105781;1254;97232;-70
2024/01/07 07:12:11;;;;;;;13.30;4.80;;;;;;;-3.57;80.94;98593.26;105273;1254;96584;-70
2024/01/07 07:14:38;;;;;;;13.80;5.10;;;;;;;-3.55;80.96;98589.41;105854;1253;109588;-69
2024/01/07 07:17:06;;;;;;;13.50;5.00;;;;;;;-3.54;80.89;98592.15;105639;1265;96658;-69
2024/01/07 07:19:34;;;;;;;12.30;4.50;;;;;;;-3.52;80.83;98591.23;105474;1257;107532;-71
2024/01/07 07:22:04;;;;;;;12.60;5.00;;;;;;;-3.54;80.45;98592.14;105894;1254;96599;-70
2024/01/07 07:24:32;;;;;;;16.20;5.30;;;;;;;-3.54;80.84;98600.66;105964;1248;96602;-70
2024/01/07 07:27:00;;;;;;;15.30;5.20;;;;;;;-3.53;80.76;98605.30;105596;1251;109897;-69
2024/01/07 07:29:27;;;;;;;13.60;4.40;;;;;;;-3.53;80.74;98603.56;105416;1257;97927;-70
2024/01/07 07:31:55;;;;;;;13.80;4.70;;;;;;;-3.58;80.57;98606.10;105772;1263;107318;-69
2024/01/07 07:34:23;;;;;;;17.20;6.00;;;;;;;-3.63;80.54;98603.24;105616;1253;96635;-69
2024/01/07 07:36:51;;;;;;;16.30;5.80;;;;;;;-3.64;80.77;98603.45;105688;1257;96658;-70
2024/01/07 07:39:19;;;;;;;12.70;4.50;;;;;;;-3.63;80.67;98609.84;105684;1253;110753;-69
2024/01/07 07:41:48;;;;;;;12.90;4.90;;;;;;;-3.61;80.69;98609.63;105625;1265;96590;-71
2024/01/07 07:44:16;;;;;;;15.60;5.40;;;;;;;-3.61;80.76;98612.91;105333;1257;107135;-69
2024/01/07 07:46:43;;;;;;;16.50;5.50;;;;;;;-3.60;80.67;98614.27;105123;1254;97942;-70
2024/01/07 07:49:11;;;;;;;14.40;5.50;;;;;;;-3.60;80.63;98615.33;105798;1251;96613;-69
2024/01/07 07:51:39;;;;;;;13.80;4.90;;;;;;;-3.61;80.80;98617.43;105267;1253;110614;-69
2024/01/07 07:54:07;;;;;;;12.30;4.50;;;;;;;-3.62;80.66;98620.39;105063;1267;96553;-69
2024/01/07 07:56:35;;;;;;;14.70;5.10;;;;;;;-3.62;80.70;98619.36;105713;1262;106808;-70
2024/01/07 07:59:03;;;;;;;16.60;5.40;;;;;;;-3.62;80.87;98618.13;105600;1262;96600;-80
2024/01/07 08:01:31;;;;;;;15.30;5.70;;;;;;;-3.57;80.88;98620.13;105890;1254;97448;-78
2024/01/07 08:03:59;;;;;;;15.20;6.10;;;;;;;-3.56;80.61;98625.81;105735;1254;109669;-76
2024/01/07 08:06:27;;;;;;;14.00;5.50;;;;;;;-3.59;80.64;98630.38;105529;1254;96564;-80
2024/01/07 08:08:55;;;;;;;15.10;5.00;;;;;;;-3.60;80.60;98622.61;105606;1255;107685;-77
2024/01/07 08:11:24;;;;;;;17.50;5.40;;;;;;;-3.60;80.80;98624.16;105791;1263;96681;-79
2024/01/07 08:13:52;;;;;;;16.20;6.00;;;;;;;-3.58;80.75;98626.73;105794;1254;96535;-70
2024/01/07 08:16:20;;;;;;;15.30;5.20;;;;;;;-3.59;80.53;98630.38;105538;1257;109960;-70
2024/01/07 08:18:48;;;;;;;18.70;5.60;;;;;;;-3.59;80.70;98633.49;105506;1261;97898;-68
2024/01/07 08:21:16;;;;;;;16.50;5.20;;;;;;;-3.57;80.69;98635.89;105677;1262;107839;-69
2024/01/07 08:23:43;;;;;;;15.40;5.40;;;;;;;-3.57;80.73;98636.74;105853;1262;96604;-69
2024/01/07 08:26:12;;;;;;;14.60;6.00;;;;;;;-3.54;80.74;98639.14;105667;1263;96599;-69
2024/01/07 08:28:41;;;;;;;15.90;5.70;;;;;;;-3.54;80.48;98642.23;105787;1253;111977;-68
2024/01/07 08:31:09;;;;;;;15.40;5.50;;;;;;;-3.55;80.54;98644.85;105476;1253;96557;-69
2024/01/07 08:33:37;;;;;;;12.40;5.50;;;;;;;-3.55;80.40;98646.95;105552;1257;108151;-70
2024/01/07 08:36:05;;;;;;;16.80;5.50;;;;;;;-3.58;80.39;98647.02;105803;1260;96721;-70
2024/01/07 08:38:34;;;;;;;15.00;5.50;;;;;;;-3.58;80.71;98650.65;105808;1256;98028;-69
2024/01/07 08:41:02;;;;;;;12.70;5.40;;;;;;;-3.56;80.60;98656.84;105692;1253;109711;-68
2024/01/07 08:43:29;;;;;;;17.40;5.50;;;;;;;-3.55;80.57;98653.18;105682;1255;96576;-70
2024/01/07 08:45:57;;;;;;;14.90;5.80;;;;;;;-3.53;80.88;98656.95;105650;1260;107709;-69
2024/01/07 08:48:25;;;;;;;14.80;5.00;;;;;;;-3.54;80.60;98660.45;105674;1264;96619;-68
2024/01/07 08:50:53;;;;;;;12.50;5.60;;;;;;;-3.55;80.78;98654.92;105491;1253;96646;-70
2024/01/07 08:53:22;;;;;;;13.00;5.50;;;;;;;-3.52;80.66;98654.34;105748;1254;109456;-69
2024/01/07 08:55:50;;;;;;;16.10;5.80;;;;;;;-3.51;80.50;98658.15;105571;1254;96593;-68
2024/01/07 08:58:18;;;;;;;16.90;6.10;;;;;;;-3.50;80.48;98659.32;105515;1256;107463;-69
2024/01/07 09:00:45;;;;;;;20.00;7.20;;;;;;;-3.50;80.58;98661.39;105720;1253;96624;-68
2024/01/07 09:03:13;;;;;;;19.40;8.80;;;;;;;-3.46;80.68;98657.66;105834;1262;96519;-67
2024/01/07 09:05:41;;;;;;;15.70;6.20;;;;;;;-3.43;80.84;98663.14;105161;1256;109879;-69
2024/01/07 09:08:11;;;;;;;17.90;6.90;;;;;;;-3.44;80.34;98656.04;105763;1252;96647;-69
2024/01/07 09:10:39;;;;;;;17.10;6.40;;;;;;;-3.41;80.78;98660.85;105508;1253;107223;-69
2024/01/07 09:13:06;;;;;;;19.80;6.70;;;;;;;-3.38;80.65;98661.13;105593;1254;97530;-70
2024/01/07 09:15:34;;;;;;;20.10;7.30;;;;;;;-3.38;80.17;98661.98;105687;1257;97671;-70
2024/01/07 09:18:03;;;;;;;16.80;5.60;;;;;;;-3.42;80.30;98661.04;105707;1254;108669;-69
2024/01/07 09:20:31;;;;;;;19.90;6.00;;;;;;;-3.44;80.36;98662.11;105947;1254;96516;-70
2024/01/07 09:22:59;;;;;;;18.60;6.40;;;;;;;-3.44;80.41;98660.39;105774;1257;107649;-70
2024/01/07 09:25:27;;;;;;;15.20;5.20;;;;;;;-3.43;80.38;98657.77;105443;1257;96654;-70
2024/01/07 09:27:55;;;;;;;18.50;6.60;;;;;;;-3.43;80.47;98663.83;105629;1254;96676;-71
2024/01/07 09:30:23;;;;;;;15.80;5.70;;;;;;;-3.42;80.49;98665.55;105762;1253;109281;-70
2024/01/07 09:32:51;;;;;;;16.10;6.10;;;;;;;-3.41;80.63;98659.98;105497;1264;96537;-70
2024/01/07 09:35:19;;;;;;;17.90;6.70;;;;;;;-3.41;80.36;98663.63;105600;1254;107159;-70
2024/01/07 09:37:47;;;;;;;18.40;7.70;;;;;;;-3.45;80.34;98665.94;105659;1260;96590;-69
2024/01/07 09:40:21;;;;;;;19.70;8.20;;;;;;;-3.47;80.10;98664.43;105712;1257;96631;-70
2024/01/07 09:42:50;;;;;;;17.60;6.10;;;;;;;-3.50;79.79;98665.73;105698;1253;109973;-71
2024/01/07 09:45:18;;;;;;;16.10;6.20;;;;;;;-3.51;80.21;98665.94;105862;1255;97435;-71
2024/01/07 09:47:46;;;;;;;36.40;18.90;;;;;;;-3.52;80.41;98664.55;105434;1257;106619;-68
2024/01/07 09:50:16;;;;;;;23.10;10.20;;;;;;;-3.48;80.63;98665.51;105723;1262;96603;-69
2024/01/07 09:52:45;;;;;;;19.70;8.20;;;;;;;-3.45;80.40;98659.35;105572;1257;96682;-80
2024/01/07 09:55:27;;;;;;;18.70;7.30;;;;;;;-3.45;80.44;98659.70;105596;1253;109967;-75
2024/01/07 09:57:54;;;;;;;17.00;6.50;;;;;;;-3.47;80.11;98661.85;105742;1251;96592;-72
2024/01/07 10:00:22;;;;;;;16.60;6.30;;;;;;;-3.48;80.29;98654.07;105726;1254;107301;-75
2024/01/07 10:02:50;;;;;;;17.70;6.60;;;;;;;-3.46;80.33;98654.36;105960;1254;96583;-80
2024/01/07 10:05:18;;;;;;;16.70;6.10;;;;;;;-3.47;80.44;98652.48;105714;1262;96535;-81
2024/01/07 10:07:46;;;;;;;17.90;7.30;;;;;;;-3.45;80.45;98656.95;105482;1258;109864;-71
2024/01/07 10:10:15;;;;;;;15.70;6.00;;;;;;;-3.45;80.51;98658.50;105913;1251;96589;-70
2024/01/07 10:12:46;;;;;;;17.80;6.80;;;;;;;-3.44;80.58;98657.26;105546;1254;107042;-75
2024/01/07 10:15:14;;;;;;;15.40;5.60;;;;;;;-3.45;80.16;98655.03;105870;1251;96692;-75
2024/01/07 10:17:43;;;;;;;20.30;6.70;;;;;;;-3.43;80.29;98659.32;105631;1266;96686;-74
2024/01/07 10:20:11;;;;;;;20.20;8.00;;;;;;;-3.38;80.33;98656.11;105638;1254;109904;-79
2024/01/07 10:22:39;;;;;;;17.40;6.90;;;;;;;-3.37;80.24;98653.65;105692;1251;96683;-76
2024/01/07 10:25:07;;;;;;;18.30;7.30;;;;;;;-3.37;80.40;98651.75;105316;1257;107716;-73
2024/01/07 10:27:36;;;;;;;18.00;7.40;;;;;;;-3.40;79.98;98648.88;105613;1257;96625;-72
2024/01/07 10:30:04;;;;;;;19.60;7.00;;;;;;;-3.44;79.95;98653.61;105396;1257;96612;-75
2024/01/07 10:32:35;;;;;;;18.60;7.30;;;;;;;-3.45;80.13;98650.88;105722;1254;109865;-73
2024/01/07 10:35:04;;;;;;;16.90;6.10;;;;;;;-3.44;80.22;98654.14;105770;1262;96598;-74
2024/01/07 10:37:33;;;;;;;17.00;6.20;;;;;;;-3.44;80.23;98647.38;105437;1265;107569;-75
2024/01/07 10:40:03;;;;;;;21.30;7.50;;;;;;;-3.41;80.32;98646.10;105691;1256;96609;-73
2024/01/07 10:42:32;;;;;;;19.00;6.70;;;;;;;-3.36;80.33;98650.14;105652;1251;96593;-76
2024/01/07 10:45:01;;;;;;;19.80;7.50;;;;;;;-3.36;80.22;98648.95;105692;1251;110162;-73
2024/01/07 10:47:32;;;;;;;22.10;8.60;;;;;;;-3.36;80.44;98646.67;105773;1251;96571;-73
2024/01/07 10:50:02;;;;;;;20.80;8.10;;;;;;;-3.34;80.08;98652.55;105455;1267;106318;-73
2024/01/07 10:52:32;;;;;;;21.20;8.10;;;;;;;-3.37;80.02;98648.95;105624;1251;97808;-74
2024/01/07 10:55:09;;;;;;;24.30;9.50;;;;;;;-3.37;80.30;98649.48;105709;1254;96609;-73
2024/01/07 10:57:49;;;;;;;21.20;8.40;;;;;;;-3.40;79.86;98648.87;105840;1251;109556;-75
2024/01/07 11:03:45;;;;;;;19.80;7.10;;;;;;;-3.35;80.18;98644.23;102151;1296;636056;-73
2024/01/07 11:06:28;;;;;;;20.90;8.60;;;;;;;-3.41;79.94;98644.71;104412;1270;94316;-73
2024/01/07 11:09:03;;;;;;;22.80;8.90;;;;;;;-3.41;79.88;98647.32;105131;1275;94516;-76
2024/01/07 11:11:42;;;;;;;28.10;12.70;;;;;;;-3.46;80.18;98646.55;104960;1273;107165;-72
2024/01/07 11:14:36;;;;;;;24.30;10.00;;;;;;;-3.47;80.13;98648.15;104925;1261;95266;-74
2024/01/07 11:17:05;;;;;;;;;;;;;;;-3.48;80.05;98651.48;105390;1260;139612;-73
2024/01/07 11:19:35;;;;;;;22.50;9.70;;;;;;;-3.56;79.26;98654.05;105090;1261;94427;-73
2024/01/07 11:22:28;;;;;;;22.00;8.40;;;;;;;-3.60;79.59;98651.02;105220;1260;94350;-72
2024/01/07 11:25:01;;;;;;;18.20;6.60;;;;;;;-3.59;79.91;98649.61;105334;1261;107825;-74